sensor_id;sensor_type;location;lat;lon;timestamp;pressure;altitude;pressure_sealevel;temperature;humidity
72359;BME280;60317;48.880;-0.862;2022-08-21T00:01:34;100572.88;;;20.92;55.75
72359;BME280;60317;48.880;-0.862;2022-08-21T00:04:05;100564.22;;;20.89;55.53
72359;BME280;60317;48.880;-0.862;2022-08-21T00:06:32;100563.34;;;20.88;55.64
72359;BME280;60317;48.880;-0.862;2022-08-21T00:08:59;100563.34;;;20.88;55.53
72359;BME280;60317;48.880;-0.862;2022-08-21T00:11:32;100558.13;;;20.87;55.56
72359;BME280;60317;48.880;-0.862;2022-08-21T00:13:59;100552.91;;;20.85;55.38
72359;BME280;60317;48.880;-0.862;2022-08-21T00:16:25;100563.75;;;20.84;55.35
72359;BME280;60317;48.880;-0.862;2022-08-21T00:18:52;100563.91;;;20.82;55.45
72359;BME280;60317;48.880;-0.862;2022-08-21T00:21:20;100563.16;;;20.80;55.31
72359;BME280;60317;48.880;-0.862;2022-08-21T00:23:46;100568.53;;;20.80;55.06
72359;BME280;60317;48.880;-0.862;2022-08-21T00:26:13;100566.00;;;20.79;54.90
72359;BME280;60317;48.880;-0.862;2022-08-21T00:28:39;100560.75;;;20.77;54.96
72359;BME280;60317;48.880;-0.862;2022-08-21T00:31:06;100570.53;;;20.78;54.86
72359;BME280;60317;48.880;-0.862;2022-08-21T00:33:33;100573.22;;;20.78;55.01
72359;BME280;60317;48.880;-0.862;2022-08-21T00:36:00;100577.84;;;20.76;54.88
72359;BME280;60317;48.880;-0.862;2022-08-21T00:38:28;100576.16;;;20.75;55.02
72359;BME280;60317;48.880;-0.862;2022-08-21T00:40:57;100577.13;;;20.74;54.94
72359;BME280;60317;48.880;-0.862;2022-08-21T00:43:31;100574.44;;;20.74;54.87
72359;BME280;60317;48.880;-0.862;2022-08-21T00:45:58;100567.38;;;20.73;54.88
72359;BME280;60317;48.880;-0.862;2022-08-21T00:48:25;100571.75;;;20.74;54.90
72359;BME280;60317;48.880;-0.862;2022-08-21T00:50:55;100575.56;;;20.71;54.76
72359;BME280;60317;48.880;-0.862;2022-08-21T00:53:23;100579.22;;;20.70;54.70
72359;BME280;60317;48.880;-0.862;2022-08-21T00:55:52;100570.31;;;20.70;54.86
72359;BME280;60317;48.880;-0.862;2022-08-21T00:58:22;100562.41;;;20.68;54.65
72359;BME280;60317;48.880;-0.862;2022-08-21T01:00:50;100552.50;;;20.69;54.66
72359;BME280;60317;48.880;-0.862;2022-08-21T01:03:21;100561.69;;;20.66;54.66
72359;BME280;60317;48.880;-0.862;2022-08-21T01:05:49;100565.34;;;20.65;54.53
72359;BME280;60317;48.880;-0.862;2022-08-21T01:08:17;100563.50;;;20.66;54.62
72359;BME280;60317;48.880;-0.862;2022-08-21T01:10:44;100558.16;;;20.66;54.63
72359;BME280;60317;48.880;-0.862;2022-08-21T01:13:18;100552.78;;;20.66;54.46
72359;BME280;60317;48.880;-0.862;2022-08-21T01:15:48;100544.97;;;20.63;54.62
72359;BME280;60317;48.880;-0.862;2022-08-21T01:18:16;100544.97;;;20.63;54.57
72359;BME280;60317;48.880;-0.862;2022-08-21T01:23:13;100538.75;;;20.62;54.30
72359;BME280;60317;48.880;-0.862;2022-08-21T01:25:40;100532.53;;;20.62;54.51
72359;BME280;60317;48.880;-0.862;2022-08-21T01:28:10;100530.97;;;20.59;54.30
72359;BME280;60317;48.880;-0.862;2022-08-21T01:30:38;100524.03;;;20.57;54.28
72359;BME280;60317;48.880;-0.862;2022-08-21T01:33:05;100520.50;;;20.56;54.18
72359;BME280;60317;48.880;-0.862;2022-08-21T01:35:31;100512.69;;;20.53;54.32
72359;BME280;60317;48.880;-0.862;2022-08-21T01:37:58;100514.28;;;20.56;54.02
72359;BME280;60317;48.880;-0.862;2022-08-21T01:40:26;100511.59;;;20.56;54.04
72359;BME280;60317;48.880;-0.862;2022-08-21T01:42:53;100524.16;;;20.55;54.13
72359;BME280;60317;48.880;-0.862;2022-08-21T01:45:19;100531.38;;;20.55;53.96
72359;BME280;60317;48.880;-0.862;2022-08-21T01:47:46;100528.81;;;20.53;53.88
72359;BME280;60317;48.880;-0.862;2022-08-21T01:50:16;100523.44;;;20.53;53.91
72359;BME280;60317;48.880;-0.862;2022-08-21T01:52:43;100533.31;;;20.53;53.89
72359;BME280;60317;48.880;-0.862;2022-08-21T01:55:11;100537.75;;;20.54;53.90
72359;BME280;60317;48.880;-0.862;2022-08-21T01:57:39;100538.69;;;20.53;53.87
72359;BME280;60317;48.880;-0.862;2022-08-21T02:00:09;100531.63;;;20.52;53.91
72359;BME280;60317;48.880;-0.862;2022-08-21T02:02:36;100536.25;;;20.49;53.98
72359;BME280;60317;48.880;-0.862;2022-08-21T02:05:03;100534.56;;;20.48;54.04
72359;BME280;60317;48.880;-0.862;2022-08-21T02:07:36;100539.06;;;20.48;54.07
72359;BME280;60317;48.880;-0.862;2022-08-21T02:10:05;100544.44;;;20.48;53.91
72359;BME280;60317;48.880;-0.862;2022-08-21T02:12:32;100556.19;;;20.47;53.89
72359;BME280;60317;48.880;-0.862;2022-08-21T02:15:00;100548.22;;;20.45;53.94
72359;BME280;60317;48.880;-0.862;2022-08-21T02:17:26;100537.50;;;20.45;53.76
72359;BME280;60317;48.880;-0.862;2022-08-21T02:19:53;100539.22;;;20.46;53.81
72359;BME280;60317;48.880;-0.862;2022-08-21T02:22:19;100548.22;;;20.45;53.78
72359;BME280;60317;48.880;-0.862;2022-08-21T02:24:46;100545.69;;;20.44;53.71
72359;BME280;60317;48.880;-0.862;2022-08-21T02:27:20;100551.06;;;20.44;53.67
72359;BME280;60317;48.880;-0.862;2022-08-21T02:29:51;100548.63;;;20.41;53.91
72359;BME280;60317;48.880;-0.862;2022-08-21T02:32:19;100550.31;;;20.42;53.63
72359;BME280;60317;48.880;-0.862;2022-08-21T02:34:46;100544.25;;;20.40;53.56
72359;BME280;60317;48.880;-0.862;2022-08-21T02:37:12;100539.72;;;20.40;53.48
72359;BME280;60317;48.880;-0.862;2022-08-21T02:39:39;100550.47;;;20.40;53.66
72359;BME280;60317;48.880;-0.862;2022-08-21T02:42:06;100551.47;;;20.39;53.54
72359;BME280;60317;48.880;-0.862;2022-08-21T02:44:32;100556.09;;;20.37;53.59
72359;BME280;60317;48.880;-0.862;2022-08-21T02:47:00;100555.94;;;20.39;53.47
72359;BME280;60317;48.880;-0.862;2022-08-21T02:49:28;100557.69;;;20.40;53.51
72359;BME280;60317;48.880;-0.862;2022-08-21T02:51:54;100559.63;;;20.38;53.45
72359;BME280;60317;48.880;-0.862;2022-08-21T02:54:21;100543.53;;;20.38;53.44
72359;BME280;60317;48.880;-0.862;2022-08-21T02:56:47;100538.31;;;20.36;53.66
72359;BME280;60317;48.880;-0.862;2022-08-21T02:59:14;100539.25;;;20.35;53.45
72359;BME280;60317;48.880;-0.862;2022-08-21T03:01:40;100539.25;;;20.35;53.59
72359;BME280;60317;48.880;-0.862;2022-08-21T03:04:07;100531.22;;;20.35;53.38
72359;BME280;60317;48.880;-0.862;2022-08-21T03:06:34;100528.66;;;20.34;53.53
72359;BME280;60317;48.880;-0.862;2022-08-21T03:09:01;100531.47;;;20.32;53.44
72359;BME280;60317;48.880;-0.862;2022-08-21T03:11:28;100534.16;;;20.32;53.23
72359;BME280;60317;48.880;-0.862;2022-08-21T03:13:54;100532.47;;;20.31;53.29
72359;BME280;60317;48.880;-0.862;2022-08-21T03:16:21;100526.25;;;20.31;53.37
72359;BME280;60317;48.880;-0.862;2022-08-21T03:18:47;100522.72;;;20.30;52.99
72359;BME280;60317;48.880;-0.862;2022-08-21T03:21:14;100519.19;;;20.30;53.20
72359;BME280;60317;48.880;-0.862;2022-08-21T03:23:42;100519.19;;;20.30;53.17
72359;BME280;60317;48.880;-0.862;2022-08-21T03:26:09;100512.22;;;20.27;53.13
72359;BME280;60317;48.880;-0.862;2022-08-21T03:28:36;100496.13;;;20.27;53.15
72359;BME280;60317;48.880;-0.862;2022-08-21T03:31:03;100498.81;;;20.27;53.34
72359;BME280;60317;48.880;-0.862;2022-08-21T03:33:29;100495.28;;;20.26;53.22
72359;BME280;60317;48.880;-0.862;2022-08-21T03:36:00;100509.56;;;20.27;53.41
72359;BME280;60317;48.880;-0.862;2022-08-21T03:38:29;100513.34;;;20.24;53.49
72359;BME280;60317;48.880;-0.862;2022-08-21T03:40:58;100496.38;;;20.24;53.19
72359;BME280;60317;48.880;-0.862;2022-08-21T03:43:25;100491.03;;;20.24;53.30
72359;BME280;60317;48.880;-0.862;2022-08-21T03:45:56;100488.34;;;20.24;53.10
72359;BME280;60317;48.880;-0.862;2022-08-21T03:48:23;100496.38;;;20.24;53.06
72359;BME280;60317;48.880;-0.862;2022-08-21T03:50:52;100491.88;;;20.24;53.01
72359;BME280;60317;48.880;-0.862;2022-08-21T03:53:18;100500.06;;;20.23;52.82
72359;BME280;60317;48.880;-0.862;2022-08-21T03:55:46;100496.66;;;20.21;53.01
72359;BME280;60317;48.880;-0.862;2022-08-21T03:58:15;100496.78;;;20.19;52.88
72359;BME280;60317;48.880;-0.862;2022-08-21T04:00:43;100495.81;;;20.20;52.77
72359;BME280;60317;48.880;-0.862;2022-08-21T04:03:10;100496.06;;;20.17;52.86
72359;BME280;60317;48.880;-0.862;2022-08-21T04:05:36;100503.16;;;20.18;52.74
72359;BME280;60317;48.880;-0.862;2022-08-21T04:08:05;100502.28;;;20.18;52.74
72359;BME280;60317;48.880;-0.862;2022-08-21T04:10:33;100505.94;;;20.17;52.75
72359;BME280;60317;48.880;-0.862;2022-08-21T04:13:01;100506.78;;;20.17;52.86
72359;BME280;60317;48.880;-0.862;2022-08-21T04:15:29;100510.47;;;20.16;52.79
72359;BME280;60317;48.880;-0.862;2022-08-21T04:17:55;100513.88;;;20.18;52.76
72359;BME280;60317;48.880;-0.862;2022-08-21T04:20:23;100515.00;;;20.16;52.82
72359;BME280;60317;48.880;-0.862;2022-08-21T04:22:50;100514.84;;;20.17;52.82
72359;BME280;60317;48.880;-0.862;2022-08-21T04:25:19;100515.00;;;20.16;52.87
72359;BME280;60317;48.880;-0.862;2022-08-21T04:27:47;100523.03;;;20.16;52.83
72359;BME280;60317;48.880;-0.862;2022-08-21T04:30:15;100526.56;;;20.16;52.94
72359;BME280;60317;48.880;-0.862;2022-08-21T04:32:44;100530.25;;;20.15;52.94
72359;BME280;60317;48.880;-0.862;2022-08-21T04:35:13;100525.72;;;20.16;52.81
72359;BME280;60317;48.880;-0.862;2022-08-21T04:37:40;100525.72;;;20.16;52.88
72359;BME280;60317;48.880;-0.862;2022-08-21T04:40:09;100522.31;;;20.14;52.96
72359;BME280;60317;48.880;-0.862;2022-08-21T04:42:42;100530.34;;;20.14;53.07
72359;BME280;60317;48.880;-0.862;2022-08-21T04:45:08;100535.97;;;20.11;53.13
72359;BME280;60317;48.880;-0.862;2022-08-21T04:47:35;100532.19;;;20.13;53.28
72359;BME280;60317;48.880;-0.862;2022-08-21T04:50:22;100533.03;;;20.14;53.10
72359;BME280;60317;48.880;-0.862;2022-08-21T04:52:50;100543.91;;;20.12;53.11
72359;BME280;60317;48.880;-0.862;2022-08-21T04:55:18;100540.38;;;20.12;53.15
72359;BME280;60317;48.880;-0.862;2022-08-21T04:57:46;100540.38;;;20.12;53.13
72359;BME280;60317;48.880;-0.862;2022-08-21T05:00:15;100538.66;;;20.11;53.08
72359;BME280;60317;48.880;-0.862;2022-08-21T05:02:42;100529.91;;;20.09;53.11
72359;BME280;60317;48.880;-0.862;2022-08-21T05:05:09;100528.91;;;20.10;53.12
72359;BME280;60317;48.880;-0.862;2022-08-21T05:07:37;100521.84;;;20.09;53.24
72359;BME280;60317;48.880;-0.862;2022-08-21T05:10:08;100526.22;;;20.10;53.09
72359;BME280;60317;48.880;-0.862;2022-08-21T05:12:37;100521.72;;;20.10;53.13
72359;BME280;60317;48.880;-0.862;2022-08-21T05:15:04;100528.81;;;20.11;53.29
72359;BME280;60317;48.880;-0.862;2022-08-21T05:17:31;100524.53;;;20.09;53.32
72359;BME280;60317;48.880;-0.862;2022-08-21T05:19:58;100513.81;;;20.09;53.41
72359;BME280;60317;48.880;-0.862;2022-08-21T05:22:25;100522.69;;;20.09;53.33
72359;BME280;60317;48.880;-0.862;2022-08-21T05:24:52;100525.38;;;20.09;53.31
72359;BME280;60317;48.880;-0.862;2022-08-21T05:27:19;100527.22;;;20.09;53.46
72359;BME280;60317;48.880;-0.862;2022-08-21T05:29:46;100530.75;;;20.09;53.66
72359;BME280;60317;48.880;-0.862;2022-08-21T05:32:13;100542.34;;;20.10;53.39
72359;BME280;60317;48.880;-0.862;2022-08-21T05:34:41;100542.34;;;20.10;53.67
72359;BME280;60317;48.880;-0.862;2022-08-21T05:37:10;100536.22;;;20.08;53.61
72359;BME280;60317;48.880;-0.862;2022-08-21T05:39:37;100537.97;;;20.09;53.80
72359;BME280;60317;48.880;-0.862;2022-08-21T05:42:25;100534.44;;;20.08;53.66
72359;BME280;60317;48.880;-0.862;2022-08-21T05:44:51;100535.28;;;20.09;53.69
72359;BME280;60317;48.880;-0.862;2022-08-21T05:47:19;100530.88;;;20.08;53.88
72359;BME280;60317;48.880;-0.862;2022-08-21T05:49:45;100539.78;;;20.08;53.99
72359;BME280;60317;48.880;-0.862;2022-08-21T05:52:18;100546.84;;;20.09;53.78
72359;BME280;60317;48.880;-0.862;2022-08-21T05:54:45;100540.63;;;20.09;53.87
72359;BME280;60317;48.880;-0.862;2022-08-21T05:57:11;100546.00;;;20.09;54.09
72359;BME280;60317;48.880;-0.862;2022-08-21T05:59:39;100547.94;;;20.07;54.04
72359;BME280;60317;48.880;-0.862;2022-08-21T06:02:06;100545.28;;;20.07;53.97
72359;BME280;60317;48.880;-0.862;2022-08-21T06:04:35;100540.75;;;20.07;54.15
72359;BME280;60317;48.880;-0.862;2022-08-21T06:07:02;100553.31;;;20.07;54.21
72359;BME280;60317;48.880;-0.862;2022-08-21T06:09:28;100557.84;;;20.06;54.10
72359;BME280;60317;48.880;-0.862;2022-08-21T06:11:55;100561.38;;;20.07;54.16
72359;BME280;60317;48.880;-0.862;2022-08-21T06:14:21;100560.38;;;20.08;53.96
72359;BME280;60317;48.880;-0.862;2022-08-21T06:16:49;100547.94;;;20.07;54.02
72359;BME280;60317;48.880;-0.862;2022-08-21T06:19:16;100538.91;;;20.08;54.16
72359;BME280;60317;48.880;-0.862;2022-08-21T06:21:42;100529.16;;;20.07;54.13
72359;BME280;60317;48.880;-0.862;2022-08-21T06:24:08;100536.38;;;20.06;54.15
72359;BME280;60317;48.880;-0.862;2022-08-21T06:26:35;100531.00;;;20.06;54.11
72359;BME280;60317;48.880;-0.862;2022-08-21T06:29:02;100531.84;;;20.07;54.23
72359;BME280;60317;48.880;-0.862;2022-08-21T06:31:28;100526.50;;;20.07;54.44
72359;BME280;60317;48.880;-0.862;2022-08-21T06:33:56;100536.13;;;20.09;54.27
72359;BME280;60317;48.880;-0.862;2022-08-21T06:36:23;100532.69;;;20.07;54.54
72359;BME280;60317;48.880;-0.862;2022-08-21T06:38:49;100531.00;;;20.06;54.57
72359;BME280;60317;48.880;-0.862;2022-08-21T06:41:17;100521.97;;;20.07;54.75
72359;BME280;60317;48.880;-0.862;2022-08-21T06:43:49;100523.69;;;20.08;54.80
72359;BME280;60317;48.880;-0.862;2022-08-21T06:46:15;100527.34;;;20.07;54.87
72359;BME280;60317;48.880;-0.862;2022-08-21T06:48:42;100528.19;;;20.08;54.96
72359;BME280;60317;48.880;-0.862;2022-08-21T06:51:10;100534.28;;;20.10;54.90
72359;BME280;60317;48.880;-0.862;2022-08-21T06:53:36;100536.13;;;20.09;55.28
72359;BME280;60317;48.880;-0.862;2022-08-21T06:56:03;100524.41;;;20.10;55.18
72359;BME280;60317;48.880;-0.862;2022-08-21T06:58:30;100522.56;;;20.11;55.30
72359;BME280;60317;48.880;-0.862;2022-08-21T07:00:57;100526.13;;;20.11;55.39
72359;BME280;60317;48.880;-0.862;2022-08-21T07:03:28;100529.66;;;20.12;55.53
72359;BME280;60317;48.880;-0.862;2022-08-21T07:05:55;100534.16;;;20.11;55.64
72359;BME280;60317;48.880;-0.862;2022-08-21T07:08:23;100539.38;;;20.13;55.61
72359;BME280;60317;48.880;-0.862;2022-08-21T07:10:51;100547.44;;;20.13;55.72
72359;BME280;60317;48.880;-0.862;2022-08-21T07:13:18;100551.13;;;20.12;55.77
72359;BME280;60317;48.880;-0.862;2022-08-21T07:15:45;100551.81;;;20.14;55.83
72359;BME280;60317;48.880;-0.862;2022-08-21T07:18:12;100542.91;;;20.13;55.85
72359;BME280;60317;48.880;-0.862;2022-08-21T07:20:39;100535.72;;;20.14;56.08
72359;BME280;60317;48.880;-0.862;2022-08-21T07:23:07;100536.47;;;20.16;56.01
72359;BME280;60317;48.880;-0.862;2022-08-21T07:25:36;100536.56;;;20.14;56.08
72359;BME280;60317;48.880;-0.862;2022-08-21T07:28:03;100523.16;;;20.14;56.29
72359;BME280;60317;48.880;-0.862;2022-08-21T07:30:30;100515.00;;;20.16;56.26
72359;BME280;60317;48.880;-0.862;2022-08-21T07:32:57;100515.84;;;20.16;56.25
72359;BME280;60317;48.880;-0.862;2022-08-21T07:35:24;100505.84;;;20.18;56.36
72359;BME280;60317;48.880;-0.862;2022-08-21T07:37:50;100514.59;;;20.20;56.45
72359;BME280;60317;48.880;-0.862;2022-08-21T07:40:17;100510.81;;;20.23;56.38
72359;BME280;60317;48.880;-0.862;2022-08-21T07:42:47;100498.38;;;20.22;56.50
72359;BME280;60317;48.880;-0.862;2022-08-21T07:45:14;100496.38;;;20.24;56.67
72359;BME280;60317;48.880;-0.862;2022-08-21T07:47:40;100492.72;;;20.25;56.79
72359;BME280;60317;48.880;-0.862;2022-08-21T07:50:09;100489.06;;;20.26;56.94
72359;BME280;60317;48.880;-0.862;2022-08-21T07:52:36;100495.13;;;20.28;56.90
72359;BME280;60317;48.880;-0.862;2022-08-21T07:55:03;100505.75;;;20.30;57.45
72359;BME280;60317;48.880;-0.862;2022-08-21T07:57:32;100514.50;;;20.32;57.69
72359;BME280;60317;48.880;-0.862;2022-08-21T08:00:00;100518.03;;;20.32;57.72
72359;BME280;60317;48.880;-0.862;2022-08-21T08:02:29;100510.00;;;20.32;57.82
72359;BME280;60317;48.880;-0.862;2022-08-21T08:04:58;100511.72;;;20.33;57.78
72359;BME280;60317;48.880;-0.862;2022-08-21T08:07:25;100508.88;;;20.35;58.18
72359;BME280;60317;48.880;-0.862;2022-08-21T08:09:51;100512.41;;;20.35;58.04
72359;BME280;60317;48.880;-0.862;2022-08-21T08:12:18;100503.53;;;20.35;58.17
72359;BME280;60317;48.880;-0.862;2022-08-21T08:14:44;100492.66;;;20.36;58.12
72359;BME280;60317;48.880;-0.862;2022-08-21T08:17:12;100476.41;;;20.38;57.87
72359;BME280;60317;48.880;-0.862;2022-08-21T08:19:39;100474.56;;;20.38;58.32
72359;BME280;60317;48.880;-0.862;2022-08-21T08:22:12;100468.25;;;20.39;58.04
72359;BME280;60317;48.880;-0.862;2022-08-21T08:24:39;100475.16;;;20.42;58.06
72359;BME280;60317;48.880;-0.862;2022-08-21T08:27:05;100482.38;;;20.41;58.26
72359;BME280;60317;48.880;-0.862;2022-08-21T08:29:32;100492.13;;;20.42;58.76
72359;BME280;60317;48.880;-0.862;2022-08-21T08:31:58;100484.94;;;20.43;58.99
72359;BME280;60317;48.880;-0.862;2022-08-21T08:34:27;100477.59;;;20.45;58.46
72359;BME280;60317;48.880;-0.862;2022-08-21T08:36:53;100477.59;;;20.45;58.78
72359;BME280;60317;48.880;-0.862;2022-08-21T08:39:20;100479.28;;;20.46;58.46
72359;BME280;60317;48.880;-0.862;2022-08-21T08:41:59;100484.53;;;20.47;58.68
72359;BME280;60317;48.880;-0.862;2022-08-21T08:44:30;100490.75;;;20.48;58.88
72359;BME280;60317;48.880;-0.862;2022-08-21T08:46:58;100500.50;;;20.49;58.73
72359;BME280;60317;48.880;-0.862;2022-08-21T08:49:31;100502.09;;;20.52;59.53
72359;BME280;60317;48.880;-0.862;2022-08-21T08:52:03;100501.25;;;20.51;59.01
72359;BME280;60317;48.880;-0.862;2022-08-21T08:54:35;100496.72;;;20.52;59.74
72359;BME280;60317;48.880;-0.862;2022-08-21T08:57:10;100498.56;;;20.51;59.80
72359;BME280;60317;48.880;-0.862;2022-08-21T08:59:41;100503.78;;;20.53;59.49
72359;BME280;60317;48.880;-0.862;2022-08-21T09:02:11;100510.00;;;20.53;59.64
72359;BME280;60317;48.880;-0.862;2022-08-21T09:04:41;100507.31;;;20.53;59.74
72359;BME280;60317;48.880;-0.862;2022-08-21T09:07:12;100502.84;;;20.54;60.17
72359;BME280;60317;48.880;-0.862;2022-08-21T09:09:51;100508.06;;;20.55;59.86
72359;BME280;60317;48.880;-0.862;2022-08-21T09:12:31;100515.13;;;20.56;60.10
72359;BME280;60317;48.880;-0.862;2022-08-21T09:15:06;100517.69;;;20.58;59.79
72359;BME280;60317;48.880;-0.862;2022-08-21T09:17:42;100507.91;;;20.57;60.44
72359;BME280;60317;48.880;-0.862;2022-08-21T09:20:20;100501.44;;;20.59;60.07
72359;BME280;60317;48.880;-0.862;2022-08-21T09:22:57;100504.84;;;20.61;59.91
72359;BME280;60317;48.880;-0.862;2022-08-21T09:25:29;100507.53;;;20.61;59.87
72359;BME280;60317;48.880;-0.862;2022-08-21T09:27:57;100508.38;;;20.62;59.38
72359;BME280;60317;48.880;-0.862;2022-08-21T09:30:26;100502.00;;;20.63;59.70
72359;BME280;60317;48.880;-0.862;2022-08-21T09:32:53;100492.13;;;20.63;59.29
72359;BME280;60317;48.880;-0.862;2022-08-21T09:35:22;100486.75;;;20.63;59.41
72359;BME280;60317;48.880;-0.862;2022-08-21T09:37:52;100487.47;;;20.65;59.41
72359;BME280;60317;48.880;-0.862;2022-08-21T09:40:27;100495.53;;;20.65;59.17
72359;BME280;60317;48.880;-0.862;2022-08-21T09:42:56;100509.81;;;20.66;59.37
72359;BME280;60317;48.880;-0.862;2022-08-21T09:45:23;100505.16;;;20.68;59.11
72359;BME280;60317;48.880;-0.862;2022-08-21T09:47:50;100505.16;;;20.68;58.99
72359;BME280;60317;48.880;-0.862;2022-08-21T09:50:19;100496.13;;;20.69;59.04
72359;BME280;60317;48.880;-0.862;2022-08-21T09:52:49;100506.72;;;20.70;59.04
72359;BME280;60317;48.880;-0.862;2022-08-21T09:55:31;100502.06;;;20.72;58.71
72359;BME280;60317;48.880;-0.862;2022-08-21T09:57:59;100497.53;;;20.73;58.58
72359;BME280;60317;48.880;-0.862;2022-08-21T10:00:30;100498.38;;;20.73;58.67
72359;BME280;60317;48.880;-0.862;2022-08-21T10:03:08;100492.16;;;20.73;58.61
72359;BME280;60317;48.880;-0.862;2022-08-21T10:05:36;100489.38;;;20.75;58.61
72359;BME280;60317;48.880;-0.862;2022-08-21T10:08:05;100489.22;;;20.76;58.55
72359;BME280;60317;48.880;-0.862;2022-08-21T10:10:42;100491.91;;;20.76;58.50
72359;BME280;60317;48.880;-0.862;2022-08-21T10:13:13;100492.63;;;20.78;58.45
72359;BME280;60317;48.880;-0.862;2022-08-21T10:15:47;100492.47;;;20.80;58.22
72359;BME280;60317;48.880;-0.862;2022-08-21T10:18:21;100498.69;;;20.80;58.36
72359;BME280;60317;48.880;-0.862;2022-08-21T10:20:54;100514.81;;;20.80;58.22
72359;BME280;60317;48.880;-0.862;2022-08-21T10:23:43;100506.66;;;20.82;58.20
72359;BME280;60317;48.880;-0.862;2022-08-21T10:26:25;100506.50;;;20.83;58.08
72359;BME280;60317;48.880;-0.862;2022-08-21T10:28:59;100500.97;;;20.85;58.05
72359;BME280;60317;48.880;-0.862;2022-08-21T10:31:33;100479.47;;;20.85;58.00
72359;BME280;60317;48.880;-0.862;2022-08-21T10:34:17;100466.78;;;20.87;57.90
72359;BME280;60317;48.880;-0.862;2022-08-21T10:36:55;100471.16;;;20.88;57.87
72359;BME280;60317;48.880;-0.862;2022-08-21T10:39:33;100473.84;;;20.88;57.98
72359;BME280;60317;48.880;-0.862;2022-08-21T10:42:14;100480.22;;;20.87;57.97
72359;BME280;60317;48.880;-0.862;2022-08-21T10:44:51;100480.94;;;20.89;57.75
72359;BME280;60317;48.880;-0.862;2022-08-21T10:47:28;100487.84;;;20.91;57.51
72359;BME280;60317;48.880;-0.862;2022-08-21T10:50:03;100484.06;;;20.94;57.54
72359;BME280;60317;48.880;-0.862;2022-08-21T10:52:48;100489.56;;;20.92;57.52
72359;BME280;60317;48.880;-0.862;2022-08-21T10:55:22;100494.09;;;20.92;57.47
72359;BME280;60317;48.880;-0.862;2022-08-21T10:57:54;100493.09;;;20.93;57.52
72359;BME280;60317;48.880;-0.862;2022-08-21T11:00:28;100495.66;;;20.94;57.48
72359;BME280;60317;48.880;-0.862;2022-08-21T11:03:00;100496.50;;;20.95;57.76
72359;BME280;60317;48.880;-0.862;2022-08-21T11:05:33;100492.00;;;20.95;57.62
72359;BME280;60317;48.880;-0.862;2022-08-21T11:08:04;100493.69;;;20.96;57.89
72359;BME280;60317;48.880;-0.862;2022-08-21T11:10:38;100501.59;;;20.98;57.55
72359;BME280;60317;48.880;-0.862;2022-08-21T11:13:27;100507.81;;;20.98;57.46
72359;BME280;60317;48.880;-0.862;2022-08-21T11:15:59;100498.66;;;21.01;57.23
72359;BME280;60317;48.880;-0.862;2022-08-21T11:18:29;100495.09;;;21.01;57.34
72359;BME280;60317;48.880;-0.862;2022-08-21T11:21:04;100497.78;;;21.01;57.47
72359;BME280;60317;48.880;-0.862;2022-08-21T11:23:42;100498.66;;;21.01;57.10
72359;BME280;60317;48.880;-0.862;2022-08-21T11:26:16;100491.44;;;21.02;57.16
72359;BME280;60317;48.880;-0.862;2022-08-21T11:28:48;100505.84;;;21.01;57.01
72359;BME280;60317;48.880;-0.862;2022-08-21T11:31:29;100497.66;;;21.02;56.98
72359;BME280;60317;48.880;-0.862;2022-08-21T11:34:07;100508.28;;;21.04;56.81
72359;BME280;60317;48.880;-0.862;2022-08-21T11:36:42;100502.91;;;21.04;57.13
72359;BME280;60317;48.880;-0.862;2022-08-21T11:39:18;100502.91;;;21.04;57.10
72359;BME280;60317;48.880;-0.862;2022-08-21T11:41:54;100503.59;;;21.06;57.20
72359;BME280;60317;48.880;-0.862;2022-08-21T11:44:36;100504.47;;;21.06;57.33
72359;BME280;60317;48.880;-0.862;2022-08-21T11:47:12;100499.94;;;21.07;56.81
72359;BME280;60317;48.880;-0.862;2022-08-21T11:49:49;100501.63;;;21.08;57.19
72359;BME280;60317;48.880;-0.862;2022-08-21T11:52:23;100496.25;;;21.08;57.23
72359;BME280;60317;48.880;-0.862;2022-08-21T11:54:57;100507.84;;;21.08;57.09
72359;BME280;60317;48.880;-0.862;2022-08-21T11:57:30;100499.78;;;21.08;57.08
72359;BME280;60317;48.880;-0.862;2022-08-21T12:00:03;100492.59;;;21.09;56.95
72359;BME280;60317;48.880;-0.862;2022-08-21T12:02:33;100490.63;;;21.11;56.90
72359;BME280;60317;48.880;-0.862;2022-08-21T12:05:04;100491.47;;;21.11;56.99
72359;BME280;60317;48.880;-0.862;2022-08-21T12:07:36;100486.94;;;21.12;57.10
72359;BME280;60317;48.880;-0.862;2022-08-21T12:10:06;100488.63;;;21.13;57.23
72359;BME280;60317;48.880;-0.862;2022-08-21T12:12:36;100490.34;;;21.14;57.21
72359;BME280;60317;48.880;-0.862;2022-08-21T12:15:14;100479.44;;;21.15;57.62
72359;BME280;60317;48.880;-0.862;2022-08-21T12:17:53;100487.41;;;21.17;57.55
72359;BME280;60317;48.880;-0.862;2022-08-21T12:20:33;100492.75;;;21.17;57.50
72359;BME280;60317;48.880;-0.862;2022-08-21T12:23:04;100488.22;;;21.17;57.78
72359;BME280;60317;48.880;-0.862;2022-08-21T12:25:41;100486.41;;;21.18;57.59
72359;BME280;60317;48.880;-0.862;2022-08-21T12:28:11;100488.09;;;21.19;57.37
72359;BME280;60317;48.880;-0.862;2022-08-21T12:30:40;100476.38;;;21.20;57.59
72359;BME280;60317;48.880;-0.862;2022-08-21T12:33:25;100477.22;;;21.20;57.63
72359;BME280;60317;48.880;-0.862;2022-08-21T12:36:02;100474.38;;;21.22;57.42
72359;BME280;60317;48.880;-0.862;2022-08-21T12:38:33;100472.53;;;21.23;57.19
72359;BME280;60317;48.880;-0.862;2022-08-21T12:41:07;100468.00;;;21.23;57.30
72359;BME280;60317;48.880;-0.862;2022-08-21T12:43:48;100446.50;;;21.23;57.39
72359;BME280;60317;48.880;-0.862;2022-08-21T12:46:18;100457.13;;;21.25;57.40
72359;BME280;60317;48.880;-0.862;2022-08-21T12:48:49;100450.63;;;21.27;57.13
72359;BME280;60317;48.880;-0.862;2022-08-21T12:51:19;100451.59;;;21.26;57.12
72359;BME280;60317;48.880;-0.862;2022-08-21T12:53:50;100449.75;;;21.27;57.16
72359;BME280;60317;48.880;-0.862;2022-08-21T12:56:18;100438.03;;;21.28;57.09